Weather at Przasnysz Airfield

Public forecast

Using degrees Celsius for public forecast. Weather courtesy of forecast.io.

Closest aviation weather report (METAR) to Przasnysz Airfield

Closest report is Olsztyn-Mazury Airport, 28.6 nm (53.0 km) N.

2022/12/04 05:00 (retrieved 51 minutes ago)

EPSY 040500Z 12010KT 070V160 1400 R01/P2000N BR OVC002 M01/M01 Q1027

Closest aviation forecast (TAF) to Przasnysz Airfield

Forecast is more than 6 hours old.

Closest forecast is Slia─Ź Airport, 271.0 nm (501.8 km) SSW.

2022/12/03 18:33 (retrieved 11 hours ago)

TAF LZSL 031630Z 0318/0406 VRB02KT 9999 SCT025 BKN045 BECMG 0402/0404 5000 BR BKN015 BKN025